KAPA

Centennial Airport

Denver, Colorado, USA
KAPA 170116Z 1701/1724 15006KT P6SM FEW060 BKN090 BKN110 FM170300 17007KT P6SM SCT110 BKN200 FM170400 19006KT P6SM SCT220 FM172200 18008KT P6SM SCT140 BKN200
Issued Valid From Valid To
Jan-17 @ 01:16 UTC
(4 hours ago)
Jan-17 @ 01:00 UTC
(4 hours ago)
Jan-18 @ 00:00 UTC
(in 19 hours)
Expired Click to View Jan-17 @ 01:00 to Jan-17 @ 03:00
KAPA 170116Z 1701/1724 15006KT P6SM FEW060 BKN090 BKN110
Wind Visibility Clouds
150° at 6 knots Greater than 6 miles
  • Few at 6,000' AGL
  • Broken at 9,000' AGL
  • Broken at 11,000' AGL
Expired Click to View Jan-17 @ 03:00 to Jan-17 @ 04:00
FM170300 17007KT P6SM SCT110 BKN200
Wind Visibility Clouds
170° at 7 knots Greater than 6 miles
  • Scattered at 11,000' AGL
  • Broken at 20,000' AGL
From Jan-17 @ 04:00 to Jan-17 @ 22:00
FM170400 19006KT P6SM SCT220
Wind Visibility Clouds
190° at 6 knots Greater than 6 miles
  • Scattered at 22,000' AGL
From Jan-17 @ 22:00 to Jan-18 @ 00:00
FM172200 18008KT P6SM SCT140 BKN200
Wind Visibility Clouds
180° at 8 knots Greater than 6 miles
  • Scattered at 14,000' AGL
  • Broken at 20,000' AGL
KAPA 170116Z 1701/1724 15006KT P6SM FEW060 BKN090 BKN110 FM170300 17007KT P6SM SCT110 BKN200 FM170400 19006KT P6SM SCT220 FM172200 18008KT P6SM SCT140 BKN200
Issued Jan-17 @ 01:16 UTC
(4 hours ago)
Valid From Jan-17 @ 01:00 UTC
(4 hours ago)
Valid To Jan-18 @ 00:00 UTC
(in 19 hours)
Jan-17 @ 01:00 - Jan-17 @ 03:00
Wind Visibility
150° at 6 knots Greater than 6 miles
Clouds
  • Few at 6,000' AGL
  • Broken at 9,000' AGL
  • Broken at 11,000' AGL
Jan-17 @ 03:00 - Jan-17 @ 04:00
Wind Visibility
170° at 7 knots Greater than 6 miles
Clouds
  • Scattered at 11,000' AGL
  • Broken at 20,000' AGL
From Jan-17 @ 04:00 - Jan-17 @ 22:00
Wind Visibility
190° at 6 knots Greater than 6 miles
Clouds
  • Scattered at 22,000' AGL
From Jan-17 @ 22:00 - Jan-18 @ 00:00
Wind Visibility
180° at 8 knots Greater than 6 miles
Clouds
  • Scattered at 14,000' AGL
  • Broken at 20,000' AGL